sensor_id;sensor_type;location;lat;lon;timestamp;pressure;altitude;pressure_sealevel;temperature;humidity
71195;BME280;58908;51.426;7.714;2023-05-29T00:00:40;100291.38;;;11.64;100.00
71195;BME280;58908;51.426;7.714;2023-05-29T00:03:07;100292.94;;;11.51;100.00
71195;BME280;58908;51.426;7.714;2023-05-29T00:05:34;100298.53;;;11.45;100.00
71195;BME280;58908;51.426;7.714;2023-05-29T00:08:00;100296.53;;;11.33;100.00
71195;BME280;58908;51.426;7.714;2023-05-29T00:10:27;100302.50;;;11.20;100.00
71195;BME280;58908;51.426;7.714;2023-05-29T00:12:53;100302.38;;;11.23;100.00
71195;BME280;58908;51.426;7.714;2023-05-29T00:15:22;100291.53;;;11.27;100.00
71195;BME280;58908;51.426;7.714;2023-05-29T00:17:48;100303.59;;;11.16;100.00
71195;BME280;58908;51.426;7.714;2023-05-29T00:20:15;100302.59;;;11.18;100.00
71195;BME280;58908;51.426;7.714;2023-05-29T00:22:43;100305.25;;;11.18;100.00
71195;BME280;58908;51.426;7.714;2023-05-29T00:25:09;100308.72;;;11.19;100.00
71195;BME280;58908;51.426;7.714;2023-05-29T00:27:35;100311.59;;;11.14;100.00
71195;BME280;58908;51.426;7.714;2023-05-29T00:30:02;100305.25;;;11.18;100.00
71195;BME280;58908;51.426;7.714;2023-05-29T00:32:30;100306.47;;;11.11;100.00
71195;BME280;58908;51.426;7.714;2023-05-29T00:34:56;100305.88;;;11.06;100.00
71195;BME280;58908;51.426;7.714;2023-05-29T00:37:22;100306.53;;;11.10;100.00
71195;BME280;58908;51.426;7.714;2023-05-29T00:39:49;100309.34;;;11.07;100.00
71195;BME280;58908;51.426;7.714;2023-05-29T00:42:15;100313.84;;;11.05;100.00
71195;BME280;58908;51.426;7.714;2023-05-29T00:44:42;100315.00;;;10.99;100.00
71195;BME280;58908;51.426;7.714;2023-05-29T00:47:08;100314.91;;;10.84;100.00
71195;BME280;58908;51.426;7.714;2023-05-29T00:49:36;100325.84;;;10.76;100.00
71195;BME280;58908;51.426;7.714;2023-05-29T00:52:03;100327.94;;;10.70;100.00
71195;BME280;58908;51.426;7.714;2023-05-29T00:54:31;100332.34;;;10.69;100.00
71195;BME280;58908;51.426;7.714;2023-05-29T00:56:58;100339.78;;;10.61;100.00
71195;BME280;58908;51.426;7.714;2023-05-29T00:59:25;100341.84;;;10.55;100.00
71195;BME280;58908;51.426;7.714;2023-05-29T01:01:52;100342.00;;;10.52;100.00
71195;BME280;58908;51.426;7.714;2023-05-29T01:04:19;100351.72;;;10.51;100.00
71195;BME280;58908;51.426;7.714;2023-05-29T01:06:47;100351.50;;;10.56;100.00
71195;BME280;58908;51.426;7.714;2023-05-29T01:09:14;100354.69;;;10.62;100.00
71195;BME280;58908;51.426;7.714;2023-05-29T01:11:44;100346.47;;;10.68;100.00
71195;BME280;58908;51.426;7.714;2023-05-29T01:14:14;100359.50;;;10.71;100.00
71195;BME280;58908;51.426;7.714;2023-05-29T01:16:45;100364.16;;;10.66;100.00
71195;BME280;58908;51.426;7.714;2023-05-29T01:19:16;100359.75;;;10.67;100.00
71195;BME280;58908;51.426;7.714;2023-05-29T01:21:54;100361.38;;;10.69;100.00
71195;BME280;58908;51.426;7.714;2023-05-29T01:24:24;100366.75;;;10.68;100.00
71195;BME280;58908;51.426;7.714;2023-05-29T01:26:53;100365.53;;;10.56;100.00
71195;BME280;58908;51.426;7.714;2023-05-29T01:29:22;100369.38;;;10.49;100.00
71195;BME280;58908;51.426;7.714;2023-05-29T01:31:49;100377.38;;;10.48;100.00
71195;BME280;58908;51.426;7.714;2023-05-29T01:34:16;100370.59;;;10.42;100.00
71195;BME280;58908;51.426;7.714;2023-05-29T01:36:42;100370.59;;;10.42;100.00
71195;BME280;58908;51.426;7.714;2023-05-29T01:39:08;100368.91;;;10.41;100.00
71195;BME280;58908;51.426;7.714;2023-05-29T01:41:35;100373.50;;;10.36;100.00
71195;BME280;58908;51.426;7.714;2023-05-29T01:44:03;100377.78;;;10.39;100.00
71195;BME280;58908;51.426;7.714;2023-05-29T01:46:33;100388.03;;;10.26;100.00
71195;BME280;58908;51.426;7.714;2023-05-29T01:49:00;100394.91;;;10.30;100.00
71195;BME280;58908;51.426;7.714;2023-05-29T01:51:26;100396.31;;;10.19;100.00
71195;BME280;58908;51.426;7.714;2023-05-29T01:53:52;100393.41;;;10.25;100.00
71195;BME280;58908;51.426;7.714;2023-05-29T01:56:19;100402.44;;;10.19;100.00
71195;BME280;58908;51.426;7.714;2023-05-29T01:58:46;100391.19;;;10.16;100.00
71195;BME280;58908;51.426;7.714;2023-05-29T02:01:14;100399.34;;;10.10;100.00
71195;BME280;58908;51.426;7.714;2023-05-29T02:03:41;100394.31;;;10.05;100.00
71195;BME280;58908;51.426;7.714;2023-05-29T02:06:07;100394.81;;;10.13;100.00
71195;BME280;58908;51.426;7.714;2023-05-29T02:08:33;100395.22;;;10.04;100.00
71195;BME280;58908;51.426;7.714;2023-05-29T02:10:59;100406.47;;;10.08;100.00
71195;BME280;58908;51.426;7.714;2023-05-29T02:13:25;100402.22;;;10.05;100.00
71195;BME280;58908;51.426;7.714;2023-05-29T02:15:52;100398.56;;;10.08;100.00
71195;BME280;58908;51.426;7.714;2023-05-29T02:18:19;100402.22;;;10.05;100.00
71195;BME280;58908;51.426;7.714;2023-05-29T02:20:46;100399.88;;;9.98;100.00
71195;BME280;58908;51.426;7.714;2023-05-29T02:23:12;100403.00;;;10.07;100.00
71195;BME280;58908;51.426;7.714;2023-05-29T02:25:38;100399.81;;;10.19;100.00
71195;BME280;58908;51.426;7.714;2023-05-29T02:28:05;100403.72;;;10.11;100.00
71195;BME280;58908;51.426;7.714;2023-05-29T02:30:31;100403.94;;;10.06;100.00
71195;BME280;58908;51.426;7.714;2023-05-29T02:32:57;100407.59;;;10.02;100.00
71195;BME280;58908;51.426;7.714;2023-05-29T02:35:25;100404.84;;;10.05;100.00
71195;BME280;58908;51.426;7.714;2023-05-29T02:37:52;100411.13;;;10.03;100.00
71195;BME280;58908;51.426;7.714;2023-05-29T02:40:18;100416.66;;;10.15;100.00
71195;BME280;58908;51.426;7.714;2023-05-29T02:42:45;100417.47;;;10.17;100.00
71195;BME280;58908;51.426;7.714;2023-05-29T02:45:11;100415.09;;;10.11;100.00
71195;BME280;58908;51.426;7.714;2023-05-29T02:47:37;100422.03;;;10.14;100.00
71195;BME280;58908;51.426;7.714;2023-05-29T02:50:04;100419.25;;;10.17;100.00
71195;BME280;58908;51.426;7.714;2023-05-29T02:52:32;100423.53;;;10.19;100.00
71195;BME280;58908;51.426;7.714;2023-05-29T02:54:58;100420.31;;;10.13;100.00
71195;BME280;58908;51.426;7.714;2023-05-29T02:57:25;100418.53;;;10.13;100.00
71195;BME280;58908;51.426;7.714;2023-05-29T02:59:51;100421.44;;;10.07;100.00
71195;BME280;58908;51.426;7.714;2023-05-29T03:02:17;100426.00;;;10.04;100.00
71195;BME280;58908;51.426;7.714;2023-05-29T03:04:44;100418.03;;;10.05;100.00
71195;BME280;58908;51.426;7.714;2023-05-29T03:07:10;100421.09;;;9.95;100.00
71195;BME280;58908;51.426;7.714;2023-05-29T03:09:39;100423.94;;;9.90;100.00
71195;BME280;58908;51.426;7.714;2023-05-29T03:12:05;100418.34;;;9.78;100.00
71195;BME280;58908;51.426;7.714;2023-05-29T03:14:31;100423.81;;;9.73;100.00
71195;BME280;58908;51.426;7.714;2023-05-29T03:17:01;100422.34;;;9.66;100.00
71195;BME280;58908;51.426;7.714;2023-05-29T03:19:27;100419.91;;;9.62;100.00
71195;BME280;58908;51.426;7.714;2023-05-29T03:21:53;100426.50;;;9.52;100.00
71195;BME280;58908;51.426;7.714;2023-05-29T03:24:20;100435.19;;;9.54;100.00
71195;BME280;58908;51.426;7.714;2023-05-29T03:26:47;100419.84;;;9.43;100.00
71195;BME280;58908;51.426;7.714;2023-05-29T03:29:13;100428.66;;;9.43;100.00
71195;BME280;58908;51.426;7.714;2023-05-29T03:31:40;100423.84;;;9.32;100.00
71195;BME280;58908;51.426;7.714;2023-05-29T03:34:06;100426.47;;;9.32;100.00
71195;BME280;58908;51.426;7.714;2023-05-29T03:36:32;100421.94;;;9.36;100.00
71195;BME280;58908;51.426;7.714;2023-05-29T03:39:01;100415.09;;;9.32;100.00
71195;BME280;58908;51.426;7.714;2023-05-29T03:41:28;100420.34;;;9.32;100.00
71195;BME280;58908;51.426;7.714;2023-05-29T03:43:56;100423.00;;;9.32;100.00
71195;BME280;58908;51.426;7.714;2023-05-29T03:46:22;100421.78;;;9.19;100.00
71195;BME280;58908;51.426;7.714;2023-05-29T03:48:48;100418.97;;;9.23;100.00
71195;BME280;58908;51.426;7.714;2023-05-29T03:51:14;100428.41;;;9.29;100.00
71195;BME280;58908;51.426;7.714;2023-05-29T03:53:41;100422.06;;;9.33;100.00
71195;BME280;58908;51.426;7.714;2023-05-29T03:56:07;100425.03;;;9.25;100.00
71195;BME280;58908;51.426;7.714;2023-05-29T03:58:33;100427.72;;;9.24;100.00
71195;BME280;58908;51.426;7.714;2023-05-29T04:01:02;100428.59;;;9.24;100.00
71195;BME280;58908;51.426;7.714;2023-05-29T04:03:28;100427.88;;;9.19;100.00
71195;BME280;58908;51.426;7.714;2023-05-29T04:05:55;100442.06;;;9.17;100.00
71195;BME280;58908;51.426;7.714;2023-05-29T04:08:22;100446.13;;;9.24;100.00
71195;BME280;58908;51.426;7.714;2023-05-29T04:10:48;100441.78;;;9.23;100.00
71195;BME280;58908;51.426;7.714;2023-05-29T04:13:18;100447.00;;;9.24;100.00
71195;BME280;58908;51.426;7.714;2023-05-29T04:15:44;100451.25;;;9.27;100.00
71195;BME280;58908;51.426;7.714;2023-05-29T04:18:12;100456.34;;;9.31;100.00
71195;BME280;58908;51.426;7.714;2023-05-29T04:20:38;100458.19;;;9.29;100.00
71195;BME280;58908;51.426;7.714;2023-05-29T04:23:04;100459.47;;;9.41;100.00
71195;BME280;58908;51.426;7.714;2023-05-29T04:25:31;100457.03;;;9.36;100.00
71195;BME280;58908;51.426;7.714;2023-05-29T04:27:57;100461.50;;;9.34;100.00
71195;BME280;58908;51.426;7.714;2023-05-29T04:30:27;100459.81;;;9.33;100.00
71195;BME280;58908;51.426;7.714;2023-05-29T04:32:53;100456.16;;;9.36;100.00
71195;BME280;58908;51.426;7.714;2023-05-29T04:35:21;100461.44;;;9.36;100.00
71195;BME280;58908;51.426;7.714;2023-05-29T04:37:47;100461.94;;;9.45;100.00
71195;BME280;58908;51.426;7.714;2023-05-29T04:40:13;100455.78;;;9.44;100.00
71195;BME280;58908;51.426;7.714;2023-05-29T04:42:42;100454.31;;;9.38;100.00
71195;BME280;58908;51.426;7.714;2023-05-29T04:45:09;100450.06;;;9.35;100.00
71195;BME280;58908;51.426;7.714;2023-05-29T04:47:36;100454.69;;;9.50;100.00
71195;BME280;58908;51.426;7.714;2023-05-29T04:50:08;100448.50;;;9.71;100.00
71195;BME280;58908;51.426;7.714;2023-05-29T04:52:37;100457.38;;;9.68;100.00
71195;BME280;58908;51.426;7.714;2023-05-29T04:55:03;100464.31;;;9.71;100.00
71195;BME280;58908;51.426;7.714;2023-05-29T04:57:29;100460.41;;;9.79;100.00
71195;BME280;58908;51.426;7.714;2023-05-29T04:59:56;100459.91;;;9.91;100.00
71195;BME280;58908;51.426;7.714;2023-05-29T05:02:22;100458.91;;;9.94;100.00
71195;BME280;58908;51.426;7.714;2023-05-29T05:04:48;100466.22;;;9.87;100.00
71195;BME280;58908;51.426;7.714;2023-05-29T05:07:18;100468.31;;;9.79;100.00
71195;BME280;58908;51.426;7.714;2023-05-29T05:09:45;100472.88;;;9.96;100.00
71195;BME280;58908;51.426;7.714;2023-05-29T05:12:12;100468.34;;;9.99;100.00
71195;BME280;58908;51.426;7.714;2023-05-29T05:14:38;100481.75;;;9.93;100.00
71195;BME280;58908;51.426;7.714;2023-05-29T05:17:05;100482.56;;;10.15;100.00
71195;BME280;58908;51.426;7.714;2023-05-29T05:19:31;100488.19;;;10.28;100.00
71195;BME280;58908;51.426;7.714;2023-05-29T05:21:58;100487.53;;;10.23;100.00
71195;BME280;58908;51.426;7.714;2023-05-29T05:24:24;100485.75;;;10.23;100.00
71195;BME280;58908;51.426;7.714;2023-05-29T05:26:52;100488.13;;;10.29;100.00
71195;BME280;58908;51.426;7.714;2023-05-29T05:29:18;100486.47;;;10.27;100.00
71195;BME280;58908;51.426;7.714;2023-05-29T05:31:45;100487.25;;;10.29;100.00
71195;BME280;58908;51.426;7.714;2023-05-29T05:34:11;100487.91;;;10.34;100.00
71195;BME280;58908;51.426;7.714;2023-05-29T05:36:37;100483.31;;;10.57;100.00
71195;BME280;58908;51.426;7.714;2023-05-29T05:39:04;100479.50;;;10.44;100.00
71195;BME280;58908;51.426;7.714;2023-05-29T05:41:30;100470.06;;;10.59;100.00
71195;BME280;58908;51.426;7.714;2023-05-29T05:43:58;100470.63;;;10.47;100.00
71195;BME280;58908;51.426;7.714;2023-05-29T05:46:24;100474.09;;;10.66;100.00
71195;BME280;58908;51.426;7.714;2023-05-29T05:48:51;100478.47;;;10.85;100.00
71195;BME280;58908;51.426;7.714;2023-05-29T05:51:17;100480.19;;;10.86;100.00
71195;BME280;58908;51.426;7.714;2023-05-29T05:53:44;100478.53;;;10.65;100.00
71195;BME280;58908;51.426;7.714;2023-05-29T05:56:10;100477.50;;;10.49;100.00
71195;BME280;58908;51.426;7.714;2023-05-29T05:58:36;100476.94;;;10.43;100.00
71195;BME280;58908;51.426;7.714;2023-05-29T06:01:04;100474.81;;;10.69;100.00
71195;BME280;58908;51.426;7.714;2023-05-29T06:03:32;100477.25;;;10.55;100.00
71195;BME280;58908;51.426;7.714;2023-05-29T06:05:58;100475.06;;;10.83;100.00
71195;BME280;58908;51.426;7.714;2023-05-29T06:08:24;100477.22;;;11.29;100.00
71195;BME280;58908;51.426;7.714;2023-05-29T06:10:51;100471.94;;;11.11;100.00
71195;BME280;58908;51.426;7.714;2023-05-29T06:13:17;100472.19;;;11.42;100.00
71195;BME280;58908;51.426;7.714;2023-05-29T06:15:43;100470.88;;;11.50;100.00
71195;BME280;58908;51.426;7.714;2023-05-29T06:18:11;100457.50;;;11.89;100.00
71195;BME280;58908;51.426;7.714;2023-05-29T06:20:37;100472.31;;;12.40;100.00
71195;BME280;58908;51.426;7.714;2023-05-29T06:23:04;100456.63;;;13.16;100.00
71195;BME280;58908;51.426;7.714;2023-05-29T06:25:30;100463.78;;;14.04;100.00
71195;BME280;58908;51.426;7.714;2023-05-29T06:27:58;100450.69;;;14.17;100.00
71195;BME280;58908;51.426;7.714;2023-05-29T06:30:24;100461.47;;;13.98;100.00
71195;BME280;58908;51.426;7.714;2023-05-29T06:32:50;100455.69;;;14.21;100.00
71195;BME280;58908;51.426;7.714;2023-05-29T06:35:18;100457.13;;;14.54;100.00
71195;BME280;58908;51.426;7.714;2023-05-29T06:37:44;100447.94;;;16.31;99.62
71195;BME280;58908;51.426;7.714;2023-05-29T06:40:11;100458.69;;;14.15;100.00
71195;BME280;58908;51.426;7.714;2023-05-29T06:42:38;100463.47;;;14.66;100.00
71195;BME280;58908;51.426;7.714;2023-05-29T06:45:04;100459.88;;;15.21;100.00
71195;BME280;58908;51.426;7.714;2023-05-29T06:47:30;100452.03;;;15.06;100.00
71195;BME280;58908;51.426;7.714;2023-05-29T06:49:57;100459.63;;;14.98;100.00
71195;BME280;58908;51.426;7.714;2023-05-29T06:52:24;100458.59;;;15.00;97.75
71195;BME280;58908;51.426;7.714;2023-05-29T06:54:50;100459.53;;;14.99;100.00
71195;BME280;58908;51.426;7.714;2023-05-29T06:57:19;100453.91;;;15.71;98.14
71195;BME280;58908;51.426;7.714;2023-05-29T06:59:45;100459.38;;;15.29;98.80
71195;BME280;58908;51.426;7.714;2023-05-29T07:02:11;100469.47;;;14.42;100.00
71195;BME280;58908;51.426;7.714;2023-05-29T07:04:37;100461.91;;;15.44;99.53
71195;BME280;58908;51.426;7.714;2023-05-29T07:07:04;100458.38;;;15.03;99.45
71195;BME280;58908;51.426;7.714;2023-05-29T07:09:31;100464.69;;;14.60;100.00
71195;BME280;58908;51.426;7.714;2023-05-29T07:11:58;100448.81;;;15.80;99.86
71195;BME280;58908;51.426;7.714;2023-05-29T07:14:24;100446.63;;;15.60;97.50
71195;BME280;58908;51.426;7.714;2023-05-29T07:16:50;100445.88;;;15.58;99.07
71195;BME280;58908;51.426;7.714;2023-05-29T07:19:16;100446.56;;;16.63;94.79
71195;BME280;58908;51.426;7.714;2023-05-29T07:21:43;100463.16;;;14.98;96.08
71195;BME280;58908;51.426;7.714;2023-05-29T07:24:09;100449.69;;;15.93;96.34
71195;BME280;58908;51.426;7.714;2023-05-29T07:26:36;100458.13;;;16.87;94.56
71195;BME280;58908;51.426;7.714;2023-05-29T07:29:03;100452.81;;;16.12;93.78
71195;BME280;58908;51.426;7.714;2023-05-29T07:31:29;100481.94;;;14.95;98.26
71195;BME280;58908;51.426;7.714;2023-05-29T07:33:55;100481.53;;;15.95;97.86
71195;BME280;58908;51.426;7.714;2023-05-29T07:36:21;100475.66;;;15.51;97.56
71195;BME280;58908;51.426;7.714;2023-05-29T07:38:48;100485.25;;;15.13;100.00
71195;BME280;58908;51.426;7.714;2023-05-29T07:41:14;100486.44;;;15.35;100.00
71195;BME280;58908;51.426;7.714;2023-05-29T07:43:42;100489.09;;;15.62;100.00
71195;BME280;58908;51.426;7.714;2023-05-29T07:46:10;100500.19;;;16.20;97.32
71195;BME280;58908;51.426;7.714;2023-05-29T07:48:36;100511.34;;;14.92;100.00
71195;BME280;58908;51.426;7.714;2023-05-29T07:51:02;100511.38;;;17.12;95.72
71195;BME280;58908;51.426;7.714;2023-05-29T07:53:29;100504.59;;;15.82;96.39
71195;BME280;58908;51.426;7.714;2023-05-29T07:55:55;100498.00;;;16.64;95.44
71195;BME280;58908;51.426;7.714;2023-05-29T07:58:22;100504.16;;;16.27;96.10
71195;BME280;58908;51.426;7.714;2023-05-29T08:00:49;100493.81;;;17.69;93.58
71195;BME280;58908;51.426;7.714;2023-05-29T08:03:16;100496.81;;;16.80;93.48
71195;BME280;58908;51.426;7.714;2023-05-29T08:05:42;100496.50;;;16.35;93.64
71195;BME280;58908;51.426;7.714;2023-05-29T08:08:08;100496.13;;;16.02;96.36
71195;BME280;58908;51.426;7.714;2023-05-29T08:10:37;100489.22;;;16.99;91.14
71195;BME280;58908;51.426;7.714;2023-05-29T08:13:03;100500.84;;;17.46;90.45
71195;BME280;58908;51.426;7.714;2023-05-29T08:15:29;100501.69;;;17.47;90.53
71195;BME280;58908;51.426;7.714;2023-05-29T08:17:58;100499.66;;;17.02;90.13
71195;BME280;58908;51.426;7.714;2023-05-29T08:20:25;100506.28;;;17.45;87.40
71195;BME280;58908;51.426;7.714;2023-05-29T08:22:53;100509.50;;;16.77;94.71
71195;BME280;58908;51.426;7.714;2023-05-29T08:25:20;100511.47;;;15.72;94.86
71195;BME280;58908;51.426;7.714;2023-05-29T08:27:46;100493.59;;;16.88;92.96
71195;BME280;58908;51.426;7.714;2023-05-29T08:30:12;100497.31;;;17.10;91.81
71195;BME280;58908;51.426;7.714;2023-05-29T08:32:39;100503.25;;;15.62;94.92
71195;BME280;58908;51.426;7.714;2023-05-29T08:35:06;100493.81;;;16.97;92.99
71195;BME280;58908;51.426;7.714;2023-05-29T08:37:33;100497.56;;;17.43;90.26
71195;BME280;58908;51.426;7.714;2023-05-29T08:39:59;100493.34;;;17.15;88.58
71195;BME280;58908;51.426;7.714;2023-05-29T08:42:26;100492.63;;;18.07;88.88
71195;BME280;58908;51.426;7.714;2023-05-29T08:44:57;100487.91;;;17.17;91.00
71195;BME280;58908;51.426;7.714;2023-05-29T08:47:27;100494.47;;;17.24;88.46
71195;BME280;58908;51.426;7.714;2023-05-29T08:49:56;100502.50;;;17.83;90.74
71195;BME280;58908;51.426;7.714;2023-05-29T08:52:24;100498.13;;;17.59;89.37
71195;BME280;58908;51.426;7.714;2023-05-29T08:54:51;100499.59;;;17.39;87.99
71195;BME280;58908;51.426;7.714;2023-05-29T08:57:17;100500.31;;;17.41;88.80
71195;BME280;58908;51.426;7.714;2023-05-29T08:59:44;100503.59;;;17.09;88.27
71195;BME280;58908;51.426;7.714;2023-05-29T09:02:10;100491.94;;;17.58;88.05
71195;BME280;58908;51.426;7.714;2023-05-29T09:04:37;100500.97;;;17.68;89.14
71195;BME280;58908;51.426;7.714;2023-05-29T09:07:04;100502.34;;;17.38;89.72
71195;BME280;58908;51.426;7.714;2023-05-29T09:09:35;100494.44;;;18.41;85.15
71195;BME280;58908;51.426;7.714;2023-05-29T09:12:01;100502.66;;;17.46;89.90
71195;BME280;58908;51.426;7.714;2023-05-29T09:14:32;100504.66;;;17.55;87.02
71195;BME280;58908;51.426;7.714;2023-05-29T09:16:59;100500.28;;;17.54;85.69
71195;BME280;58908;51.426;7.714;2023-05-29T09:19:25;100504.19;;;17.25;87.74
71195;BME280;58908;51.426;7.714;2023-05-29T09:21:51;100506.66;;;17.64;88.06
71195;BME280;58908;51.426;7.714;2023-05-29T09:24:18;100510.88;;;17.07;88.32
71195;BME280;58908;51.426;7.714;2023-05-29T09:26:49;100502.47;;;18.07;85.65
71195;BME280;58908;51.426;7.714;2023-05-29T09:29:16;100503.34;;;17.84;83.24
71195;BME280;58908;51.426;7.714;2023-05-29T09:31:45;100506.97;;;18.17;83.70
71195;BME280;58908;51.426;7.714;2023-05-29T09:34:12;100504.28;;;18.06;84.81
71195;BME280;58908;51.426;7.714;2023-05-29T09:36:38;100504.53;;;18.60;84.53
71195;BME280;58908;51.426;7.714;2023-05-29T09:39:05;100508.44;;;18.67;84.61
71195;BME280;58908;51.426;7.714;2023-05-29T09:41:34;100507.91;;;18.05;86.96
71195;BME280;58908;51.426;7.714;2023-05-29T09:44:02;100507.72;;;17.61;85.96
71195;BME280;58908;51.426;7.714;2023-05-29T09:46:33;100515.88;;;16.99;86.96
71195;BME280;58908;51.426;7.714;2023-05-29T09:49:01;100511.56;;;17.21;89.88
71195;BME280;58908;51.426;7.714;2023-05-29T09:51:27;100514.59;;;17.04;87.73
71195;BME280;58908;51.426;7.714;2023-05-29T09:53:54;100512.81;;;17.28;88.93
71195;BME280;58908;51.426;7.714;2023-05-29T09:56:21;100529.53;;;16.94;90.42
71195;BME280;58908;51.426;7.714;2023-05-29T09:58:49;100521.53;;;17.55;88.95
71195;BME280;58908;51.426;7.714;2023-05-29T10:01:17;100515.16;;;17.45;87.90
71195;BME280;58908;51.426;7.714;2023-05-29T10:03:43;100525.69;;;16.98;88.77
71195;BME280;58908;51.426;7.714;2023-05-29T10:06:10;100521.88;;;17.26;87.58
71195;BME280;58908;51.426;7.714;2023-05-29T10:08:38;100515.78;;;17.72;85.47
71195;BME280;58908;51.426;7.714;2023-05-29T10:11:08;100513.97;;;18.07;85.89
71195;BME280;58908;51.426;7.714;2023-05-29T10:13:40;100512.78;;;18.00;84.80
71195;BME280;58908;51.426;7.714;2023-05-29T10:16:08;100513.97;;;18.07;84.17
71195;BME280;58908;51.426;7.714;2023-05-29T10:18:38;100515.09;;;17.81;85.42
71195;BME280;58908;51.426;7.714;2023-05-29T10:21:04;100512.09;;;18.55;81.17
71195;BME280;58908;51.426;7.714;2023-05-29T10:23:33;100519.41;;;17.95;82.07
71195;BME280;58908;51.426;7.714;2023-05-29T10:26:02;100516.94;;;18.15;84.02
71195;BME280;58908;51.426;7.714;2023-05-29T10:28:32;100516.31;;;17.77;84.24
71195;BME280;58908;51.426;7.714;2023-05-29T10:31:00;100519.22;;;18.09;82.96
71195;BME280;58908;51.426;7.714;2023-05-29T10:33:33;100511.63;;;17.45;83.34
71195;BME280;58908;51.426;7.714;2023-05-29T10:36:05;100520.94;;;18.44;83.16
71195;BME280;58908;51.426;7.714;2023-05-29T10:38:33;100511.09;;;18.45;80.21
71195;BME280;58908;51.426;7.714;2023-05-29T10:43:41;100510.38;;;18.43;81.29
71195;BME280;58908;51.426;7.714;2023-05-29T10:46:09;100503.97;;;17.40;81.82
71195;BME280;58908;51.426;7.714;2023-05-29T10:48:36;100505.16;;;17.60;83.50
71195;BME280;58908;51.426;7.714;2023-05-29T10:51:02;100498.69;;;17.75;83.06
71195;BME280;58908;51.426;7.714;2023-05-29T10:53:32;100502.50;;;17.83;81.53
71195;BME280;58908;51.426;7.714;2023-05-29T10:55:58;100496.09;;;17.62;81.61
71195;BME280;58908;51.426;7.714;2023-05-29T10:58:26;100501.47;;;18.31;81.54
71195;BME280;58908;51.426;7.714;2023-05-29T11:00:53;100485.72;;;18.50;79.52
71195;BME280;58908;51.426;7.714;2023-05-29T11:03:21;100485.13;;;18.58;81.48
71195;BME280;58908;51.426;7.714;2023-05-29T11:05:57;100473.22;;;18.40;79.22
71195;BME280;58908;51.426;7.714;2023-05-29T11:08:28;100487.88;;;18.00;79.20
71195;BME280;58908;51.426;7.714;2023-05-29T11:10:56;100483.44;;;18.11;81.53
71195;BME280;58908;51.426;7.714;2023-05-29T11:13:23;100489.72;;;18.45;78.00
71195;BME280;58908;51.426;7.714;2023-05-29T11:16:03;100497.00;;;18.43;79.39
71195;BME280;58908;51.426;7.714;2023-05-29T11:18:30;100485.38;;;18.20;81.01
71195;BME280;58908;51.426;7.714;2023-05-29T11:20:56;100488.16;;;18.75;81.24
71195;BME280;58908;51.426;7.714;2023-05-29T11:23:23;100487.38;;;17.95;79.64
71195;BME280;58908;51.426;7.714;2023-05-29T11:25:51;100485.63;;;18.85;80.26
71195;BME280;58908;51.426;7.714;2023-05-29T11:28:18;100489.59;;;18.46;81.97
71195;BME280;58908;51.426;7.714;2023-05-29T11:30:45;100496.53;;;18.93;81.67
71195;BME280;58908;51.426;7.714;2023-05-29T11:33:15;100486.59;;;18.51;80.31
71195;BME280;58908;51.426;7.714;2023-05-29T11:35:46;100487.78;;;18.47;81.20
71195;BME280;58908;51.426;7.714;2023-05-29T11:38:15;100489.03;;;17.61;81.83
71195;BME280;58908;51.426;7.714;2023-05-29T11:40:41;100490.09;;;18.95;81.21
71195;BME280;58908;51.426;7.714;2023-05-29T11:43:07;100491.16;;;18.49;79.93
71195;BME280;58908;51.426;7.714;2023-05-29T11:45:35;100477.09;;;18.58;80.34
71195;BME280;58908;51.426;7.714;2023-05-29T11:48:02;100485.16;;;17.89;79.95
71195;BME280;58908;51.426;7.714;2023-05-29T11:50:29;100488.59;;;17.67;80.80
71195;BME280;58908;51.426;7.714;2023-05-29T11:52:56;100483.41;;;18.00;82.10
71195;BME280;58908;51.426;7.714;2023-05-29T11:55:23;100474.53;;;17.76;81.05
71195;BME280;58908;51.426;7.714;2023-05-29T11:57:50;100476.84;;;18.04;84.16
71195;BME280;58908;51.426;7.714;2023-05-29T12:00:17;100472.81;;;17.99;82.25
71195;BME280;58908;51.426;7.714;2023-05-29T12:02:45;100479.78;;;18.69;82.70
71195;BME280;58908;51.426;7.714;2023-05-29T12:05:13;100472.53;;;17.91;81.13
71195;BME280;58908;51.426;7.714;2023-05-29T12:07:46;100470.28;;;18.32;83.71
71195;BME280;58908;51.426;7.714;2023-05-29T12:10:13;100482.34;;;18.70;83.17
71195;BME280;58908;51.426;7.714;2023-05-29T12:12:40;100472.63;;;18.69;80.70
71195;BME280;58908;51.426;7.714;2023-05-29T12:15:06;100455.59;;;18.70;78.72
71195;BME280;58908;51.426;7.714;2023-05-29T12:17:33;100470.78;;;18.81;81.64
71195;BME280;58908;51.426;7.714;2023-05-29T12:20:01;100467.50;;;18.77;81.46
71195;BME280;58908;51.426;7.714;2023-05-29T12:22:32;100477.97;;;18.91;81.79
71195;BME280;58908;51.426;7.714;2023-05-29T12:25:02;100470.50;;;18.29;81.96
71195;BME280;58908;51.426;7.714;2023-05-29T12:27:30;100463.56;;;18.26;78.83
71195;BME280;58908;51.426;7.714;2023-05-29T12:29:59;100468.16;;;18.24;80.08
71195;BME280;58908;51.426;7.714;2023-05-29T12:32:33;100473.84;;;18.20;79.45
71195;BME280;58908;51.426;7.714;2023-05-29T12:35:01;100474.34;;;18.25;80.59
71195;BME280;58908;51.426;7.714;2023-05-29T12:37:29;100469.19;;;18.34;80.47
71195;BME280;58908;51.426;7.714;2023-05-29T12:40:14;100463.97;;;18.44;81.51
71195;BME280;58908;51.426;7.714;2023-05-29T12:42:41;100465.22;;;18.51;80.25
71195;BME280;58908;51.426;7.714;2023-05-29T12:45:08;100475.28;;;18.69;78.54
71195;BME280;58908;51.426;7.714;2023-05-29T12:47:34;100475.75;;;18.74;78.30